Time;durP1;ratioP1;P1;durP2;ratioP2;P2;SDS_P1;SDS_P2;PMS_P1;PMS_P2;Temp;Humidity;BMP_temperature;BMP_pressure;BME280_temperature;BME280_humidity;BME280_pressure;Samples;Min_cycle;Max_cycle;Signal;HPM_P1;HPM_P2
2024/01/14 00:00:38;;;;;;;47.42;16.50;;;1.20;65.20;;;;;;2509422;54;20988;-65
2024/01/14 00:03:05;;;;;;;48.08;17.62;;;1.20;65.10;;;;;;2282024;55;21006;-65
2024/01/14 00:05:31;;;;;;;49.10;17.02;;;1.20;64.90;;;;;;2512172;54;21004;-65
2024/01/14 00:07:57;;;;;;;40.63;14.73;;;1.20;65.00;;;;;;2509847;54;20965;-66
2024/01/14 00:10:24;;;;;;;36.88;13.05;;;1.20;64.90;;;;;;2277897;55;21354;-65
2024/01/14 00:12:50;;;;;;;37.53;12.35;;;1.20;64.90;;;;;;2276741;56;21177;-65
2024/01/14 00:15:18;;;;;;;44.25;13.65;;;1.20;65.60;;;;;;2277738;55;21285;-65
2024/01/14 00:17:45;;;;;;;30.37;10.90;;;1.10;64.80;;;;;;2278439;56;21380;-67
2024/01/14 00:20:11;;;;;;;39.20;12.85;;;1.10;64.80;;;;;;2512025;54;20957;-66
2024/01/14 00:22:38;;;;;;;41.30;12.95;;;1.10;64.90;;;;;;2509224;54;21011;-66
2024/01/14 00:25:05;;;;;;;36.72;12.20;;;1.10;64.90;;;;;;2277281;55;21414;-65
2024/01/14 00:27:31;;;;;;;43.55;14.45;;;1.10;65.00;;;;;;2277824;56;21828;-66
2024/01/14 00:29:58;;;;;;;40.65;13.13;;;1.10;65.00;;;;;;2277481;56;20975;-66
2024/01/14 00:32:25;;;;;;;37.97;12.52;;;1.10;65.00;;;;;;2509844;55;20988;-67
2024/01/14 00:34:51;;;;;;;37.20;12.00;;;1.10;65.00;;;;;;2277659;55;20987;-66
2024/01/14 00:37:20;;;;;;;35.80;12.82;;;1.10;65.00;;;;;;2278093;56;21189;-65
2024/01/14 00:39:49;;;;;;;39.23;12.10;;;1.10;64.90;;;;;;2510408;55;21017;-65
2024/01/14 00:42:16;;;;;;;39.20;12.77;;;1.10;64.90;;;;;;2277665;55;22149;-66
2024/01/14 00:44:42;;;;;;;34.42;11.85;;;1.10;64.90;;;;;;2278019;56;21342;-65
2024/01/14 00:47:09;;;;;;;38.58;11.70;;;1.00;64.70;;;;;;2509649;54;20952;-66
2024/01/14 00:49:36;;;;;;;34.88;10.90;;;1.00;64.70;;;;;;2281557;56;21016;-66
2024/01/14 00:52:05;;;;;;;34.42;12.10;;;1.00;64.70;;;;;;2280014;54;20944;-65
2024/01/14 00:54:31;;;;;;;39.58;11.75;;;1.00;64.70;;;;;;2509195;55;21032;-67
2024/01/14 00:56:58;;;;;;;32.17;11.20;;;1.00;64.70;;;;;;2277038;56;21019;-66
2024/01/14 00:59:27;;;;;;;38.25;13.32;;;1.00;64.80;;;;;;2277346;55;20980;-65
2024/01/14 01:01:53;;;;;;;40.28;13.38;;;1.00;64.80;;;;;;2277321;56;20969;-65
2024/01/14 01:04:19;;;;;;;41.78;14.60;;;1.00;64.80;;;;;;2284158;54;21017;-66
2024/01/14 01:06:46;;;;;;;47.53;14.60;;;0.90;64.70;;;;;;2278776;54;20940;-65
2024/01/14 01:09:12;;;;;;;44.53;14.65;;;0.90;64.70;;;;;;2277253;55;21075;-65
2024/01/14 01:11:38;;;;;;;45.95;14.87;;;0.90;64.80;;;;;;2277556;55;21540;-65
2024/01/14 01:14:05;;;;;;;34.97;12.70;;;0.90;65.00;;;;;;2276839;55;21298;-66
2024/01/14 01:16:31;;;;;;;40.30;12.93;;;0.90;65.00;;;;;;2277059;56;20956;-66
2024/01/14 01:18:57;;;;;;;45.22;14.55;;;0.90;65.00;;;;;;2276961;56;20992;-66
2024/01/14 01:21:24;;;;;;;40.70;13.88;;;0.90;65.00;;;;;;2277489;55;21048;-65
2024/01/14 01:23:50;;;;;;;47.35;14.55;;;0.90;65.00;;;;;;2274450;55;21020;-65
2024/01/14 01:26:16;;;;;;;41.50;14.23;;;0.90;65.00;;;;;;2276102;55;20944;-65
2024/01/14 01:28:43;;;;;;;82.88;22.05;;;0.90;64.90;;;;;;2276808;55;21064;-65
2024/01/14 01:31:09;;;;;;;52.13;17.17;;;0.90;64.90;;;;;;2282876;55;20972;-65
2024/01/14 01:33:35;;;;;;;57.13;17.77;;;0.90;64.90;;;;;;2277654;56;21256;-66
2024/01/14 01:36:02;;;;;;;48.03;16.23;;;0.90;65.00;;;;;;2276633;55;20955;-66
2024/01/14 01:38:28;;;;;;;45.95;14.80;;;0.90;65.10;;;;;;2277210;56;20956;-66
2024/01/14 01:40:54;;;;;;;49.15;16.40;;;0.90;65.00;;;;;;2508529;55;20916;-67
2024/01/14 01:43:21;;;;;;;52.53;17.90;;;0.90;65.00;;;;;;2277502;55;20949;-67
2024/01/14 01:45:50;;;;;;;51.53;17.08;;;1.00;65.10;;;;;;2509221;54;21791;-66
2024/01/14 01:48:16;;;;;;;40.83;15.13;;;0.90;65.00;;;;;;2276764;56;20992;-65
2024/01/14 01:50:44;;;;;;;46.80;15.10;;;0.90;65.00;;;;;;2277666;56;21461;-65
2024/01/14 01:53:10;;;;;;;50.20;16.77;;;1.00;65.20;;;;;;2276722;56;20952;-66
2024/01/14 01:55:37;;;;;;;44.67;14.55;;;0.90;65.10;;;;;;2509795;54;20968;-66
2024/01/14 01:58:05;;;;;;;40.97;14.57;;;1.00;65.20;;;;;;2277259;55;20954;-64
2024/01/14 02:00:34;;;;;;;39.80;14.10;;;1.00;65.10;;;;;;2277392;55;21055;-66
2024/01/14 02:03:01;;;;;;;39.92;14.05;;;1.00;65.00;;;;;;2276794;55;21434;-65
2024/01/14 02:05:29;;;;;;;41.33;14.15;;;1.00;65.00;;;;;;2509158;54;21831;-66
2024/01/14 02:07:55;;;;;;;39.13;14.02;;;1.00;65.00;;;;;;2508305;54;20920;-65
2024/01/14 02:10:21;;;;;;;39.28;13.50;;;1.00;65.00;;;;;;2277709;55;21023;-66
2024/01/14 02:12:49;;;;;;;41.15;13.52;;;1.00;65.00;;;;;;2277766;56;21028;-66
2024/01/14 02:15:15;;;;;;;37.88;13.02;;;1.00;65.00;;;;;;2276969;56;20983;-65
2024/01/14 02:17:42;;;;;;;40.88;12.40;;;1.00;65.00;;;;;;2277498;55;21020;-65
2024/01/14 02:20:10;;;;;;;40.95;13.62;;;0.90;64.90;;;;;;2277134;55;21742;-65
2024/01/14 02:22:39;;;;;;;39.88;13.27;;;0.90;64.80;;;;;;2278130;55;20952;-65
2024/01/14 02:25:05;;;;;;;43.78;13.15;;;1.00;64.90;;;;;;2509206;55;21271;-65
2024/01/14 02:27:32;;;;;;;41.53;13.32;;;0.90;64.80;;;;;;2509885;54;21004;-66
2024/01/14 02:29:59;;;;;;;51.20;16.05;;;0.90;64.80;;;;;;2509715;54;21293;-67
2024/01/14 02:32:26;;;;;;;56.20;17.83;;;0.90;64.90;;;;;;2263248;55;20993;-66
2024/01/14 02:34:52;;;;;;;48.40;16.23;;;0.90;64.80;;;;;;2510262;54;20964;-65
2024/01/14 02:37:19;;;;;;;52.45;16.08;;;0.90;64.80;;;;;;2508850;54;21498;-65
2024/01/14 02:39:45;;;;;;;41.92;16.15;;;0.90;64.90;;;;;;2509267;54;20945;-65
2024/01/14 02:42:12;;;;;;;55.92;17.80;;;0.90;65.00;;;;;;2277088;55;21269;-67
2024/01/14 02:44:40;;;;;;;50.22;15.98;;;0.90;65.00;;;;;;2277680;56;20957;-67
2024/01/14 02:47:06;;;;;;;50.58;18.55;;;0.90;65.70;;;;;;2509152;54;20956;-65
2024/01/14 02:49:32;;;;;;;49.47;16.35;;;0.90;65.00;;;;;;2277871;56;20983;-65
2024/01/14 02:51:59;;;;;;;51.53;16.95;;;0.90;64.90;;;;;;2281119;55;20938;-65
2024/01/14 02:54:25;;;;;;;46.70;16.25;;;0.90;65.00;;;;;;2511509;54;20960;-66
2024/01/14 02:56:53;;;;;;;48.30;16.15;;;0.90;65.00;;;;;;2277164;56;21501;-65
2024/01/14 02:59:19;;;;;;;46.78;15.57;;;0.90;65.00;;;;;;2509275;55;21189;-66
2024/01/14 03:01:47;;;;;;;45.95;16.08;;;0.90;65.00;;;;;;2510053;54;21476;-64
2024/01/14 03:04:14;;;;;;;49.05;16.25;;;0.90;65.00;;;;;;2509734;54;21838;-67
2024/01/14 03:06:42;;;;;;;48.22;14.98;;;0.90;64.90;;;;;;2277944;55;20988;-65
2024/01/14 03:09:09;;;;;;;41.83;14.48;;;0.90;64.80;;;;;;2509412;54;21841;-66
2024/01/14 03:11:35;;;;;;;39.38;12.15;;;0.90;64.80;;;;;;2282064;56;21393;-66
2024/01/14 03:14:02;;;;;;;41.17;13.13;;;0.90;64.90;;;;;;2278763;55;20953;-66
2024/01/14 03:16:31;;;;;;;40.63;13.52;;;0.90;65.00;;;;;;2277902;56;21489;-65
2024/01/14 03:19:00;;;;;;;39.28;13.88;;;0.90;65.00;;;;;;2276874;55;21362;-66
2024/01/14 03:21:26;;;;;;;38.38;13.25;;;0.90;65.00;;;;;;2509715;55;21095;-65
2024/01/14 03:23:53;;;;;;;46.72;13.93;;;0.90;65.00;;;;;;2277645;55;20976;-66
2024/01/14 03:26:19;;;;;;;46.80;14.52;;;0.90;65.00;;;;;;2276895;55;20948;-67
2024/01/14 03:28:45;;;;;;;39.40;13.93;;;0.90;65.00;;;;;;2510004;55;21470;-65
2024/01/14 03:31:15;;;;;;;41.53;14.75;;;0.90;64.80;;;;;;2276595;56;21855;-66
2024/01/14 03:33:44;;;;;;;45.05;15.77;;;0.90;64.80;;;;;;2509872;54;20996;-64
2024/01/14 03:36:14;;;;;;;44.92;14.35;;;0.90;64.90;;;;;;2283305;55;20993;-66
2024/01/14 03:38:41;;;;;;;43.90;15.20;;;0.90;64.80;;;;;;2277417;55;21846;-66
2024/01/14 03:41:07;;;;;;;44.50;14.87;;;0.90;64.90;;;;;;2277155;55;20933;-65
2024/01/14 03:43:37;;;;;;;45.92;14.25;;;0.90;64.90;;;;;;2278037;56;20977;-65
2024/01/14 03:46:03;;;;;;;44.95;13.73;;;0.80;64.80;;;;;;2277460;55;21280;-66
2024/01/14 03:48:31;;;;;;;38.53;11.88;;;0.90;65.00;;;;;;2509865;54;20952;-65
2024/01/14 03:50:57;;;;;;;49.83;14.32;;;0.90;65.00;;;;;;2277453;55;20984;-65
2024/01/14 03:53:23;;;;;;;51.30;16.02;;;0.90;65.10;;;;;;2281723;55;21063;-65
2024/01/14 03:55:50;;;;;;;44.50;14.57;;;0.90;65.00;;;;;;2280290;55;21027;-65
2024/01/14 03:58:16;;;;;;;47.38;14.60;;;0.90;64.90;;;;;;2277028;55;20964;-65
2024/01/14 04:00:43;;;;;;;43.42;14.55;;;0.90;64.70;;;;;;2277843;56;20950;-65
2024/01/14 04:03:09;;;;;;;44.88;15.00;;;0.90;64.70;;;;;;2276341;56;20968;-67
2024/01/14 04:05:35;;;;;;;37.70;12.23;;;0.80;64.50;;;;;;2278648;55;20984;-67
2024/01/14 04:08:01;;;;;;;46.75;14.32;;;0.80;64.60;;;;;;2276977;55;21366;-65
2024/01/14 04:10:28;;;;;;;52.00;14.77;;;0.80;64.60;;;;;;2282210;54;21013;-66
2024/01/14 04:12:54;;;;;;;44.78;14.15;;;0.80;64.60;;;;;;2278961;55;20980;-65
2024/01/14 04:15:22;;;;;;;42.10;14.13;;;0.80;64.60;;;;;;2509137;54;21469;-64
2024/01/14 04:17:48;;;;;;;49.33;14.98;;;0.80;64.70;;;;;;2508350;54;21557;-65
2024/01/14 04:20:15;;;;;;;35.60;12.40;;;0.80;64.70;;;;;;2508144;54;20976;-65
2024/01/14 04:22:41;;;;;;;38.83;12.35;;;0.80;64.80;;;;;;2277641;56;20976;-66
2024/01/14 04:25:08;;;;;;;43.65;13.82;;;0.80;64.80;;;;;;2265422;56;21460;-65
2024/01/14 04:27:34;;;;;;;48.08;14.75;;;0.80;64.90;;;;;;2280128;54;22174;-65
2024/01/14 04:30:01;;;;;;;46.37;14.60;;;0.80;65.00;;;;;;2276889;55;21021;-65
2024/01/14 04:32:27;;;;;;;52.35;15.73;;;0.80;65.00;;;;;;2509925;54;21408;-65
2024/01/14 04:34:55;;;;;;;55.15;16.70;;;0.80;65.00;;;;;;2281755;56;20980;-64
2024/01/14 04:37:21;;;;;;;48.92;13.85;;;0.80;65.00;;;;;;2279465;54;20948;-65
2024/01/14 04:39:47;;;;;;;56.88;17.37;;;0.80;65.00;;;;;;2277547;55;21358;-67
2024/01/14 04:42:14;;;;;;;54.47;16.92;;;0.80;65.00;;;;;;2277415;56;20932;-65
2024/01/14 04:44:42;;;;;;;51.63;15.63;;;0.80;65.00;;;;;;2509976;54;21723;-66
2024/01/14 04:47:12;;;;;;;48.15;14.93;;;0.80;65.10;;;;;;2276718;56;21505;-66
2024/01/14 04:49:38;;;;;;;46.33;15.57;;;0.80;65.10;;;;;;2277738;55;21067;-65
2024/01/14 04:52:04;;;;;;;46.97;15.07;;;0.80;65.20;;;;;;2276213;55;21035;-65
2024/01/14 04:54:31;;;;;;;39.30;13.40;;;0.80;65.20;;;;;;2276692;55;20996;-65
2024/01/14 04:56:58;;;;;;;48.67;14.77;;;0.80;65.20;;;;;;2277590;55;20940;-66
2024/01/14 04:59:27;;;;;;;43.20;13.60;;;0.90;65.40;;;;;;2509287;55;21012;-64
2024/01/14 05:01:53;;;;;;;43.55;13.02;;;0.90;65.30;;;;;;2278264;55;21015;-67
2024/01/14 05:04:19;;;;;;;41.10;13.35;;;0.90;65.30;;;;;;2276178;55;22241;-65
2024/01/14 05:06:46;;;;;;;38.20;12.82;;;0.90;65.30;;;;;;2277364;56;22112;-66
2024/01/14 05:09:12;;;;;;;40.75;13.07;;;0.90;65.30;;;;;;2277711;56;20972;-66
2024/01/14 05:11:40;;;;;;;37.55;11.23;;;0.90;65.30;;;;;;2279650;56;20969;-66
2024/01/14 05:14:06;;;;;;;41.08;14.27;;;0.90;65.40;;;;;;2279379;55;20968;-66
2024/01/14 05:16:34;;;;;;;39.42;12.32;;;0.90;65.30;;;;;;2509498;55;21019;-66
2024/01/14 05:19:01;;;;;;;47.95;14.73;;;0.90;65.40;;;;;;2277074;55;21546;-66
2024/01/14 05:21:27;;;;;;;44.22;14.55;;;0.90;65.40;;;;;;2280852;56;20965;-65
2024/01/14 05:23:55;;;;;;;39.60;13.60;;;1.00;65.40;;;;;;2279951;54;20944;-66
2024/01/14 05:26:24;;;;;;;44.35;13.62;;;1.00;65.40;;;;;;2274159;55;20944;-64
2024/01/14 05:28:51;;;;;;;42.78;13.65;;;1.00;65.40;;;;;;2276247;56;20932;-65
2024/01/14 05:31:17;;;;;;;40.88;13.30;;;1.00;65.40;;;;;;2280914;55;21025;-66
2024/01/14 05:33:43;;;;;;;34.88;11.98;;;1.00;65.40;;;;;;2510911;54;20940;-65
2024/01/14 05:36:10;;;;;;;39.17;13.10;;;1.00;65.40;;;;;;2276830;55;20976;-65
2024/01/14 05:38:36;;;;;;;47.03;14.25;;;1.00;65.40;;;;;;2508709;55;20940;-66
2024/01/14 05:41:03;;;;;;;49.72;15.40;;;1.10;65.40;;;;;;2277132;55;21280;-65
2024/01/14 05:43:29;;;;;;;50.12;15.05;;;1.00;65.20;;;;;;2277273;55;21000;-65
2024/01/14 05:45:58;;;;;;;41.17;14.48;;;1.10;65.30;;;;;;2277708;55;20928;-65
2024/01/14 05:48:25;;;;;;;42.88;13.38;;;1.10;65.20;;;;;;2276993;56;21930;-65
2024/01/14 05:50:51;;;;;;;37.83;13.77;;;1.10;65.20;;;;;;2277824;55;20944;-65
2024/01/14 05:53:19;;;;;;;40.33;13.35;;;1.10;65.20;;;;;;2276802;56;20932;-66
2024/01/14 05:55:45;;;;;;;53.97;14.57;;;1.10;65.30;;;;;;2277619;56;20980;-65
2024/01/14 05:58:11;;;;;;;43.35;13.40;;;1.10;65.30;;;;;;2277740;55;21767;-65
2024/01/14 06:00:37;;;;;;;50.53;15.32;;;1.10;65.30;;;;;;2508812;54;21023;-67
2024/01/14 06:03:04;;;;;;;46.92;15.05;;;1.10;65.30;;;;;;2277237;55;20956;-65
2024/01/14 06:05:30;;;;;;;53.03;15.43;;;1.10;65.30;;;;;;2276687;56;20984;-67
2024/01/14 06:07:58;;;;;;;45.42;15.05;;;1.10;65.30;;;;;;2510267;54;20932;-67
2024/01/14 06:10:25;;;;;;;39.28;13.70;;;1.10;65.30;;;;;;2509168;54;21244;-65
2024/01/14 06:12:51;;;;;;;45.40;13.60;;;1.10;65.30;;;;;;2276880;56;21688;-65
2024/01/14 06:15:19;;;;;;;35.42;11.98;;;1.10;65.40;;;;;;2508978;54;21380;-66
2024/01/14 06:17:45;;;;;;;38.10;12.25;;;1.10;65.30;;;;;;2288642;55;21109;-66
2024/01/14 06:20:12;;;;;;;35.65;11.55;;;1.10;65.20;;;;;;2290143;55;20960;-65
2024/01/14 06:22:41;;;;;;;34.67;11.23;;;1.10;65.20;;;;;;2277639;56;21044;-65
2024/01/14 06:25:08;;;;;;;38.60;12.18;;;1.10;65.10;;;;;;2509952;54;20920;-66
2024/01/14 06:27:34;;;;;;;38.08;12.18;;;1.10;65.00;;;;;;2509691;55;21287;-65
2024/01/14 06:30:02;;;;;;;36.25;12.13;;;1.10;64.90;;;;;;2277713;55;21288;-66
2024/01/14 06:32:29;;;;;;;38.67;11.85;;;1.10;64.80;;;;;;2509659;54;20971;-66
2024/01/14 06:34:55;;;;;;;43.17;13.32;;;1.10;64.70;;;;;;2511889;54;20962;-65
2024/01/14 06:37:22;;;;;;;37.72;11.23;;;1.10;64.70;;;;;;2509353;53;21024;-65
2024/01/14 06:39:48;;;;;;;38.25;10.95;;;1.00;64.60;;;;;;2277788;56;20948;-65
2024/01/14 06:42:15;;;;;;;32.22;10.60;;;1.00;64.60;;;;;;2282077;55;21045;-65
2024/01/14 06:44:44;;;;;;;41.30;11.18;;;1.00;64.50;;;;;;2511063;54;21039;-66
2024/01/14 06:47:10;;;;;;;38.03;12.95;;;1.00;64.50;;;;;;2509603;54;21477;-65
2024/01/14 06:49:36;;;;;;;43.70;12.95;;;1.00;64.60;;;;;;2282443;54;20975;-65
2024/01/14 06:52:03;;;;;;;30.80;11.00;;;0.90;64.40;;;;;;2278753;55;20936;-66
2024/01/14 06:54:29;;;;;;;42.20;12.02;;;1.00;64.60;;;;;;2277179;55;22508;-66
2024/01/14 06:56:56;;;;;;;38.60;12.57;;;0.90;64.50;;;;;;2277181;56;21012;-66
2024/01/14 06:59:24;;;;;;;29.60;10.68;;;0.90;64.60;;;;;;2276478;55;21031;-65
2024/01/14 07:01:51;;;;;;;40.17;12.55;;;0.90;64.60;;;;;;2510029;55;20968;-67
2024/01/14 07:04:18;;;;;;;36.97;12.70;;;0.90;64.60;;;;;;2277648;56;21159;-64
2024/01/14 07:06:44;;;;;;;45.12;13.43;;;0.80;64.60;;;;;;2277745;56;20944;-65
2024/01/14 07:09:12;;;;;;;41.80;12.73;;;0.80;64.60;;;;;;2277321;56;20979;-67
2024/01/14 07:11:40;;;;;;;37.33;12.98;;;0.90;64.70;;;;;;2276768;56;21015;-67
2024/01/14 07:14:06;;;;;;;38.42;12.00;;;0.90;64.80;;;;;;2276899;55;21481;-66
2024/01/14 07:16:33;;;;;;;35.35;11.88;;;0.80;64.80;;;;;;2277311;56;21000;-66
2024/01/14 07:18:59;;;;;;;34.70;12.27;;;0.90;64.90;;;;;;2277699;56;20964;-65
2024/01/14 07:21:26;;;;;;;33.60;11.50;;;0.80;64.90;;;;;;2277118;55;21039;-66
2024/01/14 07:23:53;;;;;;;28.90;10.23;;;0.90;65.00;;;;;;2510629;54;20998;-65
2024/01/14 07:26:19;;;;;;;34.55;11.27;;;0.90;65.00;;;;;;2278280;55;20943;-66
2024/01/14 07:28:46;;;;;;;34.50;11.02;;;0.90;65.00;;;;;;2509607;54;20964;-66
2024/01/14 07:31:16;;;;;;;32.88;10.57;;;0.90;65.00;;;;;;2278015;55;21016;-66
2024/01/14 07:33:43;;;;;;;26.98;9.07;;;0.90;65.00;;;;;;2277534;55;21746;-66
2024/01/14 07:36:09;;;;;;;34.45;10.32;;;0.90;65.00;;;;;;2276581;55;20957;-65
2024/01/14 07:38:36;;;;;;;40.38;12.82;;;0.90;65.00;;;;;;2277606;56;20941;-65
2024/01/14 07:41:02;;;;;;;46.65;13.70;;;0.90;65.00;;;;;;2277422;55;20968;-66
2024/01/14 07:43:29;;;;;;;48.78;15.38;;;0.90;65.00;;;;;;2277380;56;21016;-65
2024/01/14 07:45:55;;;;;;;53.80;15.93;;;0.90;65.10;;;;;;2278179;55;20925;-66
2024/01/14 07:48:26;;;;;;;50.33;15.75;;;0.90;65.10;;;;;;2277181;55;21432;-66
2024/01/14 07:50:56;;;;;;;51.40;16.92;;;0.90;65.10;;;;;;2277850;55;21044;-66
2024/01/14 07:53:23;;;;;;;55.10;17.55;;;0.90;65.10;;;;;;2277034;55;20936;-65
2024/01/14 07:55:49;;;;;;;52.20;17.00;;;0.90;65.10;;;;;;2282815;55;20973;-65
2024/01/14 07:58:15;;;;;;;47.38;15.00;;;0.90;65.10;;;;;;2511377;53;20952;-64
2024/01/14 08:00:43;;;;;;;47.47;15.32;;;0.90;65.10;;;;;;2281596;55;20942;-66
2024/01/14 08:03:14;;;;;;;59.92;17.25;;;0.90;65.10;;;;;;2278755;55;21664;-67
2024/01/14 08:05:42;;;;;;;51.97;16.30;;;0.90;65.10;;;;;;2277628;55;20960;-66
2024/01/14 08:08:08;;;;;;;47.30;16.27;;;0.90;65.10;;;;;;2277676;55;20948;-65
2024/01/14 08:10:35;;;;;;;53.42;16.65;;;0.90;65.10;;;;;;2277415;55;20952;-65
2024/01/14 08:13:01;;;;;;;47.40;15.25;;;1.00;65.20;;;;;;2510178;54;20972;-66
2024/01/14 08:15:28;;;;;;;51.33;17.65;;;0.90;65.10;;;;;;2511003;54;20992;-64
2024/01/14 08:17:58;;;;;;;51.42;16.85;;;1.00;65.20;;;;;;2512579;54;21336;-65
2024/01/14 08:20:25;;;;;;;51.47;16.23;;;1.00;65.10;;;;;;2284407;54;21014;-67
2024/01/14 08:22:55;;;;;;;45.17;13.55;;;1.00;65.10;;;;;;2278120;55;20944;-65
2024/01/14 08:25:24;;;;;;;39.05;12.60;;;1.00;65.20;;;;;;2277381;56;21747;-64
2024/01/14 08:27:52;;;;;;;40.58;13.25;;;1.00;65.20;;;;;;2278035;56;20948;-66
2024/01/14 08:30:21;;;;;;;43.87;14.18;;;1.00;65.20;;;;;;2277892;56;20999;-65
2024/01/14 08:32:47;;;;;;;42.58;14.95;;;1.00;65.10;;;;;;2508215;54;20980;-66
2024/01/14 08:35:13;;;;;;;49.83;16.00;;;1.00;65.10;;;;;;2509248;54;20948;-65
2024/01/14 08:37:43;;;;;;;49.00;15.13;;;1.00;65.10;;;;;;2278152;55;20984;-65
2024/01/14 08:40:12;;;;;;;52.20;15.63;;;1.00;65.00;;;;;;2510336;54;20936;-66
2024/01/14 08:42:43;;;;;;;59.97;18.92;;;1.00;65.00;;;;;;2277487;55;21000;-66
2024/01/14 08:45:12;;;;;;;55.77;18.00;;;1.00;64.80;;;;;;2277526;56;21051;-65
2024/01/14 08:47:39;;;;;;;46.35;14.93;;;1.00;64.70;;;;;;2509104;54;21004;-65
2024/01/14 08:50:09;;;;;;;50.65;16.35;;;1.00;64.80;;;;;;2278772;56;20980;-66
2024/01/14 08:52:37;;;;;;;48.87;16.58;;;1.00;64.90;;;;;;2517584;53;20943;-66
2024/01/14 08:55:06;;;;;;;54.80;17.65;;;1.00;65.00;;;;;;2523120;54;20959;-66
2024/01/14 08:57:33;;;;;;;49.97;17.30;;;1.00;65.00;;;;;;2277505;55;21426;-66
2024/01/14 08:59:59;;;;;;;48.85;16.92;;;1.00;64.90;;;;;;2278864;56;21038;-65
2024/01/14 09:02:26;;;;;;;61.67;19.17;;;1.00;65.00;;;;;;2510688;54;20988;-65
2024/01/14 09:04:53;;;;;;;44.50;15.55;;;1.00;65.00;;;;;;2280580;55;21023;-64
2024/01/14 09:07:21;;;;;;;52.28;16.70;;;1.00;65.00;;;;;;2510346;54;21068;-66
2024/01/14 09:09:48;;;;;;;55.60;18.05;;;1.10;65.20;;;;;;2516820;53;21082;-66
2024/01/14 09:12:16;;;;;;;55.35;18.77;;;1.00;65.00;;;;;;2276122;55;20953;-65
2024/01/14 09:14:42;;;;;;;49.10;17.52;;;1.00;64.90;;;;;;2282620;54;21266;-65
2024/01/14 09:17:12;;;;;;;50.47;17.17;;;1.10;65.10;;;;;;2279167;54;20988;-66
2024/01/14 09:19:38;;;;;;;55.70;18.55;;;1.10;65.10;;;;;;2277401;56;20940;-66
2024/01/14 09:22:05;;;;;;;54.83;19.87;;;1.10;65.10;;;;;;2509832;55;20984;-66
2024/01/14 09:24:31;;;;;;;57.72;19.67;;;1.10;64.90;;;;;;2509549;54;20883;-67
2024/01/14 09:26:58;;;;;;;51.20;17.58;;;1.10;64.80;;;;;;2513070;53;20970;-65
2024/01/14 09:29:28;;;;;;;52.78;18.52;;;1.10;64.70;;;;;;2509697;54;20957;-65
2024/01/14 09:31:55;;;;;;;50.60;17.48;;;1.10;64.80;;;;;;2278127;56;20956;-65
2024/01/14 09:34:22;;;;;;;50.53;18.17;;;1.10;64.80;;;;;;2277552;56;21766;-65
2024/01/14 09:36:48;;;;;;;47.90;16.70;;;1.10;64.70;;;;;;2510509;54;20908;-65
2024/01/14 09:39:17;;;;;;;57.40;19.12;;;1.10;64.70;;;;;;2524463;53;20950;-66
2024/01/14 09:43:37;;;;;;;51.37;17.83;;;1.10;64.80;;;;;;2277328;55;21736;-65
2024/01/14 09:46:03;;;;;;;44.60;15.18;;;1.10;64.20;;;;;;2277273;55;21102;-66
2024/01/14 09:48:30;;;;;;;42.97;15.27;;;1.10;64.80;;;;;;2510193;54;21484;-65
2024/01/14 09:50:58;;;;;;;46.53;14.87;;;1.10;64.90;;;;;;2513143;54;21488;-64
2024/01/14 09:53:26;;;;;;;38.72;13.85;;;1.10;65.00;;;;;;2277613;56;20972;-66
2024/01/14 09:55:53;;;;;;;51.10;17.67;;;1.10;65.10;;;;;;2278060;55;20964;-65
2024/01/14 09:58:19;;;;;;;49.67;17.33;;;1.10;65.10;;;;;;2282656;54;20954;-66
2024/01/14 10:00:45;;;;;;;39.75;14.50;;;1.20;65.20;;;;;;2278791;54;20964;-65
2024/01/14 10:03:12;;;;;;;48.10;16.45;;;1.20;65.20;;;;;;2277993;55;20948;-65
2024/01/14 10:05:38;;;;;;;49.42;16.62;;;1.20;65.20;;;;;;2278035;55;20971;-67
2024/01/14 10:08:04;;;;;;;53.47;17.85;;;1.20;65.10;;;;;;2280441;55;20952;-65
2024/01/14 10:10:32;;;;;;;56.45;18.23;;;1.30;65.10;;;;;;2279697;55;20990;-66
2024/01/14 10:12:58;;;;;;;52.50;18.35;;;1.30;65.00;;;;;;2277711;55;20995;-66
2024/01/14 10:15:26;;;;;;;50.90;18.17;;;1.30;64.90;;;;;;2509055;54;20956;-66
2024/01/14 10:17:52;;;;;;;54.47;19.27;;;1.30;64.90;;;;;;2285135;55;21531;-67
2024/01/14 10:20:20;;;;;;;45.92;15.88;;;1.30;64.80;;;;;;2510225;54;20964;-66
2024/01/14 10:22:50;;;;;;;39.72;15.15;;;1.30;64.80;;;;;;2277691;55;22173;-66
2024/01/14 10:25:18;;;;;;;42.20;14.55;;;1.40;65.00;;;;;;2510380;54;20940;-66
2024/01/14 10:27:44;;;;;;;39.45;12.63;;;1.40;65.10;;;;;;2277955;55;20992;-66
2024/01/14 10:30:12;;;;;;;40.47;14.50;;;1.40;65.20;;;;;;2277732;54;21000;-66
2024/01/14 10:32:39;;;;;;;43.83;15.05;;;1.40;65.20;;;;;;2277631;55;21081;-67
2024/01/14 10:35:13;;;;;;;61.67;24.87;;;1.40;65.30;;;;;;2509205;54;20944;-65
2024/01/14 10:37:39;;;;;;;48.25;17.67;;;1.50;65.30;;;;;;2277251;56;20963;-66
2024/01/14 10:40:08;;;;;;;53.60;18.77;;;1.50;65.40;;;;;;2277789;55;21990;-65
2024/01/14 10:42:38;;;;;;;55.95;18.73;;;1.50;65.40;;;;;;2510074;54;21035;-67
2024/01/14 10:45:05;;;;;;;49.05;19.55;;;1.50;65.30;;;;;;2277385;56;21044;-65
2024/01/14 10:47:35;;;;;;;58.20;19.42;;;1.60;65.40;;;;;;2509852;54;21016;-65
2024/01/14 10:50:01;;;;;;;49.10;17.25;;;1.60;65.30;;;;;;2277786;56;21039;-66
2024/01/14 10:52:33;;;;;;;60.65;22.20;;;1.60;65.20;;;;;;2276989;55;21020;-65
2024/01/14 10:55:14;;;;;;;51.63;17.30;;;1.60;65.20;;;;;;2277705;55;21028;-66
2024/01/14 10:57:41;;;;;;;47.47;16.93;;;1.70;65.20;;;;;;2508045;55;20980;-65
2024/01/14 11:00:09;;;;;;;55.30;20.42;;;1.70;65.30;;;;;;2509080;54;21812;-65
2024/01/14 11:02:36;;;;;;;51.90;17.95;;;1.70;65.30;;;;;;2277283;56;20976;-66
2024/01/14 11:05:03;;;;;;;52.08;17.55;;;1.80;65.40;;;;;;2509954;55;21040;-67
2024/01/14 11:07:32;;;;;;;56.58;17.42;;;1.80;65.50;;;;;;2277730;56;20984;-66
2024/01/14 11:09:58;;;;;;;54.63;19.10;;;1.80;65.40;;;;;;2509445;54;22846;-68
2024/01/14 11:12:57;;;;;;;59.33;18.90;;;1.90;65.40;;;;;;2509914;54;20929;-67
2024/01/14 11:15:48;;;;;;;45.38;16.75;;;1.90;65.10;;;;;;2277344;56;21873;-65
2024/01/14 11:18:18;;;;;;;43.17;15.53;;;1.90;65.30;;;;;;2510619;55;21252;-66
2024/01/14 11:20:45;;;;;;;42.62;14.10;;;2.00;65.40;;;;;;2278037;55;21684;-65
2024/01/14 11:23:12;;;;;;;41.17;14.20;;;2.00;65.30;;;;;;2509634;55;21055;-67
2024/01/14 11:25:44;;;;;;;46.53;16.80;;;2.00;65.20;;;;;;2277250;55;21000;-65
2024/01/14 11:28:11;;;;;;;48.33;16.58;;;2.00;65.00;;;;;;2282341;55;21011;-67
2024/01/14 11:31:03;;;;;;;49.95;17.50;;;2.00;65.00;;;;;;2512870;53;20984;-65
2024/01/14 11:33:40;;;;;;;45.28;16.98;;;2.00;64.80;;;;;;2277774;56;21015;-66
2024/01/14 11:36:08;;;;;;;66.47;18.92;;;2.00;65.10;;;;;;2282707;54;20970;-65
2024/01/14 11:39:11;;;;;;;58.67;17.70;;;2.10;65.50;;;;;;2279376;55;20995;-66
2024/01/14 11:41:38;;;;;;;68.75;22.23;;;2.10;65.60;;;;;;2513043;53;20973;-66
2024/01/14 11:44:08;;;;;;;50.00;19.23;;;2.10;65.60;;;;;;2277586;55;21787;-65
2024/01/14 11:46:46;;;;;;;54.20;18.42;;;2.20;65.80;;;;;;2509936;54;21460;-66
2024/01/14 11:49:21;;;;;;;51.40;17.12;;;2.20;65.80;;;;;;2277453;55;20968;-65
2024/01/14 11:51:59;;;;;;;56.25;19.73;;;2.30;65.90;;;;;;2277243;56;21762;-65
2024/01/14 11:54:26;;;;;;;56.40;19.50;;;2.30;65.80;;;;;;2277683;56;20933;-66
2024/01/14 11:56:53;;;;;;;49.50;18.33;;;2.40;66.00;;;;;;2277542;56;21076;-66
2024/01/14 11:59:19;;;;;;;49.75;17.30;;;2.40;65.90;;;;;;2277220;55;20956;-64
2024/01/14 12:01:51;;;;;;;39.17;14.38;;;2.40;66.00;;;;;;2277407;56;20934;-66
2024/01/14 12:04:17;;;;;;;46.85;16.90;;;2.50;65.80;;;;;;2277086;56;20976;-67
2024/01/14 12:06:44;;;;;;;44.25;17.15;;;2.50;66.10;;;;;;2277586;56;20955;-67
2024/01/14 12:09:15;;;;;;;44.75;15.63;;;2.60;65.90;;;;;;2276996;55;21028;-65
2024/01/14 12:11:42;;;;;;;44.42;16.87;;;2.60;65.80;;;;;;2277008;55;20956;-67
2024/01/14 12:14:08;;;;;;;48.78;16.10;;;2.60;65.70;;;;;;2508976;54;20956;-68
2024/01/14 12:16:38;;;;;;;44.05;15.35;;;2.70;65.80;;;;;;2283077;55;20994;-68
2024/01/14 12:19:19;;;;;;;45.08;15.38;;;2.70;65.70;;;;;;2278513;55;20949;-67
2024/01/14 12:21:45;;;;;;;43.97;15.10;;;2.70;65.40;;;;;;2277228;56;20940;-67
2024/01/14 12:24:11;;;;;;;48.22;15.18;;;2.70;65.60;;;;;;2508899;54;21068;-67
2024/01/14 12:26:38;;;;;;;44.15;15.20;;;2.80;66.30;;;;;;2277161;55;21000;-68
2024/01/14 12:29:05;;;;;;;33.85;13.30;;;2.80;65.50;;;;;;2509161;54;21015;-67
2024/01/14 12:31:32;;;;;;;39.65;14.27;;;2.80;65.60;;;;;;2277797;56;20948;-66
2024/01/14 12:34:03;;;;;;;45.15;16.52;;;2.80;65.80;;;;;;2278172;55;22454;-65
2024/01/14 12:36:30;;;;;;;44.20;16.33;;;2.90;66.00;;;;;;2277083;56;20952;-67
2024/01/14 12:39:00;;;;;;;52.25;19.35;;;2.90;66.10;;;;;;2509653;54;21012;-67